createdAt,value
2019-05-22T00:04:07.470Z,11.75
2019-05-22T00:09:19.629Z,11.73
2019-05-22T00:14:28.141Z,11.66
2019-05-22T00:19:35.133Z,11.59
2019-05-22T00:24:44.220Z,11.64
2019-05-22T00:29:51.405Z,11.63
2019-05-22T00:34:57.309Z,11.56
2019-05-22T00:40:04.127Z,11.51
2019-05-22T00:45:12.739Z,11.68
2019-05-22T00:50:24.942Z,11.64
2019-05-22T00:55:50.669Z,11.58
2019-05-22T01:01:14.563Z,11.53
2019-05-22T01:06:25.367Z,11.50
2019-05-22T01:11:32.267Z,11.41
2019-05-22T01:16:39.152Z,11.40
2019-05-22T01:21:46.214Z,11.38
2019-05-22T01:26:52.347Z,11.24
2019-05-22T01:32:05.948Z,11.20
2019-05-22T01:37:14.941Z,11.23
2019-05-22T01:42:25.712Z,11.32
2019-05-22T01:47:44.256Z,11.34
2019-05-22T01:52:51.889Z,11.34
2019-05-22T01:57:58.668Z,11.42
2019-05-22T02:03:07.030Z,11.53
2019-05-22T02:08:12.888Z,11.39
2019-05-22T02:13:25.854Z,11.33
2019-05-22T02:18:34.680Z,11.32
2019-05-22T02:23:40.795Z,11.31
2019-05-22T02:28:46.264Z,11.41
2019-05-22T02:34:08.185Z,11.31
2019-05-22T02:39:28.659Z,11.25
2019-05-22T02:44:35.117Z,11.30
2019-05-22T02:49:41.489Z,11.25
2019-05-22T02:54:47.894Z,11.22
2019-05-22T02:59:53.186Z,11.22
2019-05-22T03:05:05.788Z,11.20
2019-05-22T03:10:18.681Z,11.21
2019-05-22T03:15:25.886Z,11.05
2019-05-22T03:20:33.308Z,11.13
2019-05-22T03:25:42.329Z,11.12
2019-05-22T03:30:47.585Z,10.93
2019-05-22T03:36:01.353Z,10.97
2019-05-22T03:41:07.249Z,10.93
2019-05-22T03:46:37.045Z,10.95
2019-05-22T03:51:45.460Z,10.98
2019-05-22T03:56:50.782Z,10.87
2019-05-22T04:01:56.266Z,10.87
2019-05-22T04:07:03.878Z,10.87
2019-05-22T04:12:11.658Z,10.93
2019-05-22T04:17:17.717Z,10.85
2019-05-22T04:22:23.187Z,10.83
2019-05-22T04:27:30.238Z,10.82
2019-05-22T04:32:37.419Z,10.82
2019-05-22T04:37:42.946Z,10.80
2019-05-22T04:42:48.327Z,10.88
2019-05-22T04:47:58.447Z,10.88
2019-05-22T04:53:04.230Z,10.83
2019-05-22T04:58:11.547Z,10.87
2019-05-22T05:03:17.813Z,10.87
2019-05-22T05:08:24.120Z,10.83
2019-05-22T05:13:29.612Z,10.86
2019-05-22T05:18:35.240Z,10.97
2019-05-22T05:23:40.648Z,11.04
2019-05-22T05:28:46.262Z,11.05
2019-05-22T05:34:21.198Z,10.88
2019-05-22T05:40:08.156Z,10.77
2019-05-22T05:45:15.403Z,10.85
2019-05-22T05:50:37.833Z,10.80
2019-05-22T05:55:41.164Z,10.73
2019-05-22T06:00:54.413Z,10.76
2019-05-22T06:06:01.692Z,10.76
2019-05-22T06:11:45.618Z,10.77
2019-05-22T06:17:31.405Z,10.81
2019-05-22T06:22:37.600Z,10.82
2019-05-22T06:27:49.996Z,10.76
2019-05-22T06:33:29.732Z,10.80
2019-05-22T06:39:00.766Z,10.76
2019-05-22T06:44:33.970Z,10.71
2019-05-22T06:49:56.033Z,10.78
2019-05-22T06:55:01.666Z,10.63
2019-05-22T07:00:21.715Z,10.77
2019-05-22T07:05:28.559Z,10.81
2019-05-22T07:10:35.368Z,10.75
2019-05-22T07:15:52.742Z,10.77
2019-05-22T07:20:58.310Z,10.77
2019-05-22T07:26:04.107Z,10.70
2019-05-22T07:31:10.111Z,10.73
2019-05-22T07:36:17.469Z,10.74
2019-05-22T07:41:23.512Z,10.64
2019-05-22T07:46:30.944Z,10.76
2019-05-22T07:51:51.553Z,10.86
2019-05-22T07:56:46.389Z,10.87
2019-05-22T08:01:52.159Z,10.97
2019-05-22T08:06:57.490Z,11.17
2019-05-22T08:12:03.494Z,11.04
2019-05-22T08:17:11.050Z,11.19
2019-05-22T08:22:17.195Z,11.13
2019-05-22T08:27:23.872Z,10.93
2019-05-22T08:32:30.005Z,11.16
2019-05-22T08:37:38.167Z,11.43
2019-05-22T08:42:44.454Z,11.43
2019-05-22T08:47:50.407Z,11.28
2019-05-22T08:52:56.185Z,11.56
2019-05-22T08:58:02.973Z,11.53
2019-05-22T09:03:11.200Z,11.46
2019-05-22T09:08:16.779Z,11.22
2019-05-22T09:13:22.156Z,11.44
2019-05-22T09:18:27.412Z,11.69
2019-05-22T09:23:33.800Z,11.60
2019-05-22T09:28:40.126Z,11.69
2019-05-22T09:33:45.655Z,11.91
2019-05-22T09:38:52.792Z,11.95
2019-05-22T09:43:58.565Z,12.02
2019-05-22T09:49:04.267Z,12.35
2019-05-22T09:54:09.764Z,12.63
2019-05-22T09:59:15.404Z,12.74
2019-05-22T10:04:21.238Z,12.71
2019-05-22T10:09:27.521Z,12.83
2019-05-22T10:14:33.466Z,12.79
2019-05-22T10:19:39.008Z,13.18
2019-05-22T10:24:49.642Z,13.97
2019-05-22T10:29:52.899Z,14.34
2019-05-22T10:34:58.290Z,14.27
2019-05-22T10:40:04.052Z,14.12
2019-05-22T10:45:10.368Z,14.15
2019-05-22T10:50:16.132Z,13.90
2019-05-22T10:55:22.699Z,14.00
2019-05-22T11:00:29.742Z,14.08
2019-05-22T11:05:36.545Z,14.21
2019-05-22T11:10:45.186Z,15.03
2019-05-22T11:15:49.791Z,14.99
2019-05-22T11:26:06.963Z,15.17
2019-05-22T11:31:12.847Z,15.86
2019-05-22T11:36:18.994Z,16.28
2019-05-22T11:41:25.776Z,16.00
2019-05-22T11:46:31.148Z,15.80
2019-05-22T11:51:36.819Z,16.54
2019-05-22T11:56:42.400Z,16.87
2019-05-22T12:01:48.059Z,16.95
2019-05-22T12:06:54.680Z,17.30
2019-05-22T12:12:00.266Z,17.81
2019-05-22T12:17:06.338Z,17.22
2019-05-22T12:22:11.775Z,16.66
2019-05-22T12:27:17.391Z,18.74
2019-05-22T12:32:23.057Z,18.00
2019-05-22T12:37:30.666Z,17.81
2019-05-22T12:42:36.754Z,20.39
2019-05-22T12:47:44.259Z,20.54
2019-05-22T12:52:50.744Z,21.28
2019-05-22T12:57:56.236Z,23.08
2019-05-22T13:03:03.518Z,23.96
2019-05-22T13:08:11.370Z,23.79
2019-05-22T13:13:16.940Z,24.17
2019-05-22T13:18:25.647Z,25.73
2019-05-22T13:23:38.259Z,25.76
2019-05-22T13:28:46.070Z,26.49
2019-05-22T13:33:52.761Z,27.08
2019-05-22T13:38:57.983Z,26.63
2019-05-22T13:44:05.872Z,27.67
2019-05-22T13:49:11.289Z,28.32
2019-05-22T13:54:16.938Z,27.90
2019-05-22T13:59:24.903Z,26.25
2019-05-22T14:04:30.278Z,28.12
2019-05-22T14:09:36.478Z,28.42
2019-05-22T14:14:42.550Z,29.24
2019-05-22T14:19:49.502Z,29.06
2019-05-22T14:24:55.080Z,29.98
2019-05-22T14:30:00.915Z,29.48
2019-05-22T14:35:06.593Z,28.79
2019-05-22T14:40:13.719Z,28.67
2019-05-22T14:45:19.346Z,25.51
2019-05-22T14:50:25.552Z,23.27
2019-05-22T14:55:34.030Z,22.02
2019-05-22T15:00:39.951Z,21.24
2019-05-22T15:05:45.523Z,22.47
2019-05-22T15:10:51.726Z,25.61
2019-05-22T15:15:57.244Z,26.24
2019-05-22T15:21:07.365Z,28.49
2019-05-22T15:26:12.663Z,31.23
2019-05-22T15:31:18.076Z,32.33
2019-05-22T15:36:24.046Z,31.19
2019-05-22T15:41:30.526Z,30.77
2019-05-22T15:46:36.318Z,29.87
2019-05-22T15:51:44.406Z,28.50
2019-05-22T15:56:50.568Z,29.54
2019-05-22T16:01:56.959Z,27.14
2019-05-22T16:07:02.915Z,26.65
2019-05-22T16:12:09.440Z,24.30
2019-05-22T16:17:14.893Z,22.62
2019-05-22T16:22:20.369Z,22.05
2019-05-22T16:27:27.298Z,21.04
2019-05-22T16:32:35.057Z,20.48
2019-05-22T16:37:41.457Z,20.00
2019-05-22T16:42:48.529Z,19.74
2019-05-22T16:47:55.759Z,19.00
2019-05-22T16:53:06.496Z,18.81
2019-05-22T16:58:12.921Z,18.73
2019-05-22T17:03:18.686Z,18.54
2019-05-22T17:08:24.239Z,18.43
2019-05-22T17:13:31.898Z,18.23
2019-05-22T17:18:47.733Z,18.07
2019-05-22T17:23:49.331Z,17.90
2019-05-22T17:28:54.817Z,17.73
2019-05-22T17:34:00.972Z,17.67
2019-05-22T17:39:09.569Z,17.70
2019-05-22T17:44:15.159Z,17.55
2019-05-22T17:49:22.143Z,17.52
2019-05-22T17:54:29.005Z,17.52
2019-05-22T17:59:34.272Z,17.48
2019-05-22T18:04:39.656Z,17.47
2019-05-22T18:09:45.081Z,17.52
2019-05-22T18:14:50.923Z,17.48
2019-05-22T18:19:56.414Z,17.55
2019-05-22T18:25:02.811Z,17.41
2019-05-22T18:30:08.323Z,17.28
2019-05-22T18:35:15.990Z,17.04
2019-05-22T18:40:22.248Z,16.86
2019-05-22T18:45:27.725Z,16.60
2019-05-22T18:50:33.642Z,16.30
2019-05-22T18:55:39.008Z,16.04
2019-05-22T19:00:44.492Z,15.79
2019-05-22T19:05:50.703Z,15.58
2019-05-22T19:10:56.364Z,15.35
2019-05-22T19:16:01.913Z,15.10
2019-05-22T19:21:07.384Z,14.77
2019-05-22T19:26:12.673Z,14.55
2019-05-22T19:31:18.228Z,14.37
2019-05-22T19:36:23.713Z,14.26
2019-05-22T19:41:29.099Z,14.00
2019-05-22T19:46:34.559Z,13.90
2019-05-22T19:51:40.588Z,13.74
2019-05-22T19:56:46.832Z,13.52
2019-05-22T20:01:52.996Z,13.33
2019-05-22T20:06:59.521Z,13.20
2019-05-22T20:12:07.341Z,13.08
2019-05-22T20:17:13.716Z,12.94
2019-05-22T20:22:19.846Z,12.72
2019-05-22T20:27:26.464Z,12.66
2019-05-22T20:34:56.107Z,12.45
2019-05-22T20:40:02.421Z,12.28
2019-05-22T20:45:10.032Z,12.12
2019-05-22T20:50:16.898Z,11.93
2019-05-22T20:55:24.603Z,11.91
2019-05-22T21:00:30.334Z,11.77
2019-05-22T21:05:37.873Z,11.61
2019-05-22T21:10:47.036Z,11.53
2019-05-22T21:15:55.110Z,11.54
2019-05-22T21:21:00.778Z,11.34
2019-05-22T21:26:07.209Z,11.31
2019-05-22T21:31:15.485Z,11.20
2019-05-22T21:36:23.069Z,11.03
2019-05-22T21:41:28.990Z,11.06
2019-05-22T21:46:35.212Z,10.76
2019-05-22T21:51:41.470Z,10.70
2019-05-22T21:56:47.064Z,10.78
2019-05-22T22:01:59.010Z,10.70
2019-05-22T22:07:05.235Z,10.68
2019-05-22T22:12:11.671Z,10.60
2019-05-22T22:17:18.903Z,10.55
2019-05-22T22:22:30.852Z,10.48
2019-05-22T22:27:36.373Z,10.26
2019-05-22T22:32:43.259Z,10.23
2019-05-22T22:37:48.888Z,10.19
2019-05-22T22:42:54.793Z,10.24
2019-05-22T22:48:00.609Z,10.13
2019-05-22T22:53:08.500Z,10.12
2019-05-22T22:58:17.041Z,9.99
2019-05-22T23:03:24.632Z,9.88
2019-05-22T23:08:34.884Z,9.78
2019-05-22T23:13:40.827Z,9.71
2019-05-22T23:19:41.200Z,9.66
2019-05-22T23:24:48.929Z,9.60
2019-05-22T23:29:57.335Z,9.54
2019-05-22T23:35:02.708Z,9.72
2019-05-22T23:40:08.969Z,9.64
2019-05-22T23:45:20.699Z,9.52
2019-05-22T23:50:26.620Z,9.45
2019-05-22T23:55:32.297Z,9.35
